createdAt,value
2022-12-13T00:02:01.685Z,25.77
2022-12-13T00:04:30.783Z,31.98
2022-12-13T00:07:00.081Z,31.08
2022-12-13T00:09:29.245Z,30.63
2022-12-13T00:11:58.207Z,29.95
2022-12-13T00:14:27.128Z,28.58
2022-12-13T00:16:56.268Z,31.77
2022-12-13T00:19:25.979Z,33.95
2022-12-13T00:21:54.974Z,34.15
2022-12-13T00:24:24.308Z,31.80
2022-12-13T00:26:57.504Z,32.00
2022-12-13T00:29:26.864Z,32.15
2022-12-13T00:32:00.462Z,28.83
2022-12-13T00:34:30.942Z,26.92
2022-12-13T00:37:00.410Z,25.45
2022-12-13T00:39:29.856Z,27.27
2022-12-13T00:41:59.079Z,26.80
2022-12-13T00:44:28.234Z,25.80
2022-12-13T00:46:57.585Z,26.65
2022-12-13T00:49:26.881Z,25.90
2022-12-13T00:51:55.802Z,26.00
2022-12-13T00:54:24.887Z,26.88
2022-12-13T00:56:53.859Z,27.00
2022-12-13T00:59:23.002Z,27.20
2022-12-13T01:01:52.259Z,33.75
2022-12-13T01:04:21.270Z,33.63
2022-12-13T01:06:52.375Z,29.40
2022-12-13T01:09:32.296Z,26.90
2022-12-13T01:12:07.699Z,27.23
2022-12-13T01:14:37.444Z,23.60
2022-12-13T01:17:06.858Z,28.33
2022-12-13T01:19:36.452Z,26.60
2022-12-13T01:22:08.433Z,32.88
2022-12-13T01:24:37.560Z,24.08
2022-12-13T01:27:06.812Z,27.55
2022-12-13T01:29:35.854Z,27.30
2022-12-13T01:32:05.203Z,24.83
2022-12-13T01:34:34.140Z,24.67
2022-12-13T01:37:03.586Z,25.08
2022-12-13T01:39:37.959Z,27.10
2022-12-13T01:42:07.708Z,24.20
2022-12-13T01:45:00.763Z,23.83
2022-12-13T01:47:40.370Z,21.60
2022-12-13T01:50:15.199Z,21.70
2022-12-13T01:52:45.776Z,23.15
2022-12-13T01:55:18.198Z,22.98
2022-12-13T01:57:49.774Z,21.30
2022-12-13T02:00:19.937Z,21.65
2022-12-13T02:02:50.174Z,23.13
2022-12-13T02:05:46.319Z,22.52
2022-12-13T02:08:17.431Z,21.63
2022-12-13T02:10:47.073Z,24.38
2022-12-13T02:13:16.699Z,23.33
2022-12-13T02:15:58.431Z,23.15
2022-12-13T02:19:00.431Z,22.73
2022-12-13T02:21:35.318Z,26.65
2022-12-13T02:24:27.553Z,25.23
2022-12-13T02:27:30.224Z,23.10
2022-12-13T02:30:27.931Z,22.60
2022-12-13T02:33:08.956Z,21.90
2022-12-13T02:35:57.640Z,22.77
2022-12-13T02:38:53.483Z,23.20
2022-12-13T02:41:48.091Z,22.63
2022-12-13T02:44:25.742Z,21.23
2022-12-13T02:47:12.754Z,22.27
2022-12-13T02:50:00.303Z,21.48
2022-12-13T02:52:32.575Z,21.75
2022-12-13T02:55:01.834Z,21.98
2022-12-13T02:57:37.937Z,22.08
2022-12-13T03:00:11.958Z,21.73
2022-12-13T03:06:06.736Z,23.17
2022-12-13T03:08:38.356Z,21.08
2022-12-13T03:11:07.290Z,21.33
2022-12-13T03:13:56.233Z,21.77
2022-12-13T03:16:56.492Z,22.70
2022-12-13T03:19:26.051Z,21.08
2022-12-13T03:21:54.992Z,21.35
2022-12-13T03:24:23.976Z,21.10
2022-12-13T03:26:53.775Z,20.33
2022-12-13T03:29:24.167Z,18.52
2022-12-13T03:31:55.205Z,19.00
2022-12-13T03:34:24.519Z,20.98
2022-12-13T03:36:54.716Z,19.50
2022-12-13T03:39:24.657Z,19.10
2022-12-13T03:41:54.003Z,20.30
2022-12-13T03:44:23.869Z,21.35
2022-12-13T03:47:00.977Z,19.98
2022-12-13T03:49:35.549Z,19.65
2022-12-13T03:52:05.147Z,19.42
2022-12-13T03:54:34.255Z,18.77
2022-12-13T03:57:03.581Z,17.30
2022-12-13T03:59:32.529Z,20.75
2022-12-13T04:02:01.487Z,20.48
2022-12-13T04:04:30.589Z,23.25
2022-12-13T04:06:59.547Z,19.15
2022-12-13T04:09:29.635Z,19.38
2022-12-13T04:12:17.028Z,19.15
2022-12-13T04:14:46.025Z,20.92
2022-12-13T04:17:14.897Z,21.13
2022-12-13T04:19:43.820Z,19.35
2022-12-13T04:22:12.707Z,18.98
2022-12-13T04:24:41.598Z,19.23
2022-12-13T04:27:10.760Z,18.90
2022-12-13T04:29:39.732Z,19.52
2022-12-13T04:32:26.771Z,19.25
2022-12-13T04:35:00.800Z,18.65
2022-12-13T04:37:31.352Z,22.17
2022-12-13T04:40:00.764Z,18.30
2022-12-13T04:42:30.354Z,16.58
2022-12-13T04:44:59.272Z,18.20
2022-12-13T04:47:28.737Z,18.20
2022-12-13T04:49:57.845Z,18.52
2022-12-13T04:52:26.809Z,18.90
2022-12-13T04:54:56.308Z,18.83
2022-12-13T04:57:25.635Z,19.67
2022-12-13T04:59:54.648Z,17.90
2022-12-13T05:02:24.411Z,17.60
2022-12-13T05:04:54.208Z,19.83
2022-12-13T05:07:23.997Z,18.23
2022-12-13T05:09:52.887Z,17.27
2022-12-13T05:12:22.371Z,17.20
2022-12-13T05:14:53.693Z,18.95
2022-12-13T05:17:22.888Z,16.67
2022-12-13T05:19:53.500Z,17.42
2022-12-13T05:22:22.416Z,17.25
2022-12-13T05:24:51.628Z,18.20
2022-12-13T05:27:25.325Z,16.92
2022-12-13T05:30:02.922Z,16.80
2022-12-13T05:32:43.231Z,17.30
2022-12-13T05:35:22.350Z,16.92
2022-12-13T05:37:53.394Z,17.27
2022-12-13T05:40:24.789Z,18.42
2022-12-13T05:43:01.555Z,16.98
2022-12-13T05:45:34.830Z,16.45
2022-12-13T05:48:03.840Z,19.85
2022-12-13T05:50:33.088Z,20.50
2022-12-13T05:53:01.998Z,22.63
2022-12-13T05:55:30.958Z,21.05
2022-12-13T05:58:02.440Z,16.90
2022-12-13T06:00:32.674Z,17.50
2022-12-13T06:03:02.175Z,16.77
2022-12-13T06:05:32.459Z,17.42
2022-12-13T06:08:01.642Z,16.83
2022-12-13T06:10:34.891Z,18.02
2022-12-13T06:16:01.260Z,16.90
2022-12-13T06:18:33.364Z,16.58
2022-12-13T06:21:05.517Z,16.13
2022-12-13T06:23:36.375Z,16.88
2022-12-13T06:26:07.311Z,18.08
2022-12-13T06:28:36.855Z,16.30
2022-12-13T06:31:06.747Z,16.05
2022-12-13T06:33:37.652Z,15.80
2022-12-13T06:36:07.879Z,16.60
2022-12-13T06:38:43.612Z,19.92
2022-12-13T06:41:18.279Z,16.65
2022-12-13T06:43:48.811Z,17.88
2022-12-13T06:46:17.951Z,17.25
2022-12-13T06:48:48.004Z,17.65
2022-12-13T06:51:22.399Z,15.30
2022-12-13T06:53:52.164Z,17.38
2022-12-13T06:56:21.455Z,17.17
2022-12-13T06:58:50.738Z,18.00
2022-12-13T07:01:23.940Z,17.52
2022-12-13T07:03:57.455Z,16.05
2022-12-13T07:06:27.309Z,16.40
2022-12-13T07:08:59.184Z,17.15
2022-12-13T07:11:34.153Z,14.85
2022-12-13T07:14:03.103Z,15.55
2022-12-13T07:16:38.011Z,15.95
2022-12-13T07:19:22.429Z,16.15
2022-12-13T07:21:53.868Z,14.48
2022-12-13T07:24:30.613Z,16.05
2022-12-13T07:26:59.529Z,16.83
2022-12-13T07:29:28.614Z,15.57
2022-12-13T07:32:01.453Z,16.42
2022-12-13T07:34:31.813Z,16.17
2022-12-13T07:37:01.050Z,14.27
2022-12-13T07:39:30.258Z,17.73
2022-12-13T07:41:59.357Z,16.35
2022-12-13T07:44:28.510Z,17.45
2022-12-13T07:46:59.067Z,17.25
2022-12-13T07:49:27.991Z,16.27
2022-12-13T07:51:58.031Z,16.65
2022-12-13T07:54:27.348Z,16.77
2022-12-13T07:57:01.154Z,15.27
2022-12-13T07:59:33.203Z,16.13
2022-12-13T08:02:02.292Z,16.63
2022-12-13T08:04:37.467Z,14.82
2022-12-13T08:07:10.907Z,15.13
2022-12-13T08:09:40.156Z,15.85
2022-12-13T08:12:09.558Z,15.43
2022-12-13T08:14:38.626Z,14.95
2022-12-13T08:17:07.557Z,15.77
2022-12-13T08:19:36.425Z,16.48
2022-12-13T08:22:05.377Z,14.73
2022-12-13T08:24:43.233Z,15.00
2022-12-13T08:27:12.143Z,14.20
2022-12-13T08:29:41.315Z,16.50
2022-12-13T08:32:12.884Z,15.15
2022-12-13T08:34:44.780Z,15.23
2022-12-13T08:37:14.415Z,15.35
2022-12-13T08:39:43.510Z,15.45
2022-12-13T08:42:19.893Z,16.02
2022-12-13T08:44:51.539Z,15.13
2022-12-13T08:47:24.495Z,15.52
2022-12-13T08:50:04.328Z,14.75
2022-12-13T08:52:39.390Z,15.13
2022-12-13T08:55:12.331Z,13.95
2022-12-13T08:57:43.082Z,14.63
2022-12-13T09:00:15.324Z,15.02
2022-12-13T09:02:44.920Z,13.60
2022-12-13T09:05:32.427Z,14.18
2022-12-13T09:08:25.174Z,14.95
2022-12-13T09:11:11.462Z,14.38
2022-12-13T09:13:51.267Z,15.20
2022-12-13T09:16:26.028Z,14.55
2022-12-13T09:18:56.162Z,15.32
2022-12-13T09:21:31.626Z,15.73
2022-12-13T09:24:02.153Z,14.90
2022-12-13T09:26:38.081Z,14.90
2022-12-13T09:29:11.037Z,15.82
2022-12-13T09:31:41.623Z,15.90
2022-12-13T09:34:12.298Z,15.85
2022-12-13T09:36:41.747Z,16.88
2022-12-13T09:39:13.242Z,15.27
2022-12-13T09:41:52.197Z,15.65
2022-12-13T09:44:43.732Z,16.10
2022-12-13T09:47:35.128Z,16.65
2022-12-13T09:50:15.339Z,15.90
2022-12-13T09:52:45.853Z,17.02
2022-12-13T09:55:44.348Z,18.83
2022-12-13T09:58:36.031Z,18.65
2022-12-13T10:01:07.532Z,18.48
2022-12-13T10:03:36.489Z,17.23
2022-12-13T10:06:23.347Z,16.48
2022-12-13T10:08:59.043Z,18.67
2022-12-13T10:11:32.184Z,17.90
2022-12-13T10:14:37.618Z,16.27
2022-12-13T10:17:10.448Z,16.35
2022-12-13T10:19:42.819Z,16.63
2022-12-13T10:22:17.443Z,16.95
2022-12-13T10:24:57.952Z,15.13
2022-12-13T10:27:34.907Z,15.82
2022-12-13T10:30:18.159Z,15.38
2022-12-13T10:32:52.290Z,15.70
2022-12-13T10:35:27.018Z,16.33
2022-12-13T10:37:57.589Z,17.55
2022-12-13T10:40:35.433Z,16.50
2022-12-13T10:43:15.305Z,15.82
2022-12-13T10:46:00.416Z,17.15
2022-12-13T10:48:38.878Z,16.50
2022-12-13T10:51:21.155Z,16.88
2022-12-13T10:53:59.677Z,17.27
2022-12-13T10:57:01.391Z,16.63
2022-12-13T10:59:36.835Z,16.75
2022-12-13T11:02:37.672Z,17.15
2022-12-13T11:05:28.326Z,17.42
2022-12-13T11:08:00.727Z,18.50
2022-12-13T11:10:31.532Z,18.65
2022-12-13T11:13:06.341Z,17.00
2022-12-13T11:15:39.730Z,17.90
2022-12-13T11:18:20.202Z,17.60
2022-12-13T11:21:01.806Z,17.00
2022-12-13T11:23:39.652Z,17.65
2022-12-13T11:26:12.509Z,18.60
2022-12-13T11:28:56.703Z,19.38
2022-12-13T11:31:55.015Z,19.25
2022-12-13T11:34:42.128Z,18.75
2022-12-13T11:37:30.105Z,18.85
2022-12-13T11:40:09.157Z,18.92
2022-12-13T11:43:00.597Z,18.42
2022-12-13T11:45:41.522Z,19.35
2022-12-13T11:48:47.757Z,22.42
2022-12-13T11:51:25.877Z,20.88
2022-12-13T11:54:09.132Z,19.13
2022-12-13T11:56:43.497Z,20.70
2022-12-13T11:59:40.114Z,18.40
2022-12-13T12:02:30.651Z,19.63
2022-12-13T12:05:02.573Z,20.83
2022-12-13T12:08:31.378Z,20.20
2022-12-13T12:10:50.064Z,23.67
2022-12-13T12:13:30.054Z,21.98
2022-12-13T12:16:16.279Z,20.92
2022-12-13T12:18:45.489Z,20.63
2022-12-13T12:25:00.353Z,21.25
2022-12-13T12:27:32.155Z,21.40
2022-12-13T12:30:06.333Z,21.48
2022-12-13T12:32:55.760Z,22.80
2022-12-13T12:35:58.269Z,24.58
2022-12-13T12:38:42.813Z,24.98
2022-12-13T12:44:06.243Z,25.80
2022-12-13T12:47:17.718Z,25.65
2022-12-13T12:49:49.433Z,29.95
2022-12-13T12:52:54.283Z,29.48
2022-12-13T12:55:47.632Z,26.60
2022-12-13T12:59:00.786Z,25.02
2022-12-13T13:01:47.573Z,24.88
2022-12-13T13:04:22.189Z,25.65
2022-12-13T13:07:22.536Z,24.60
2022-12-13T13:09:55.414Z,23.73
2022-12-13T13:12:30.076Z,24.85
2022-12-13T13:15:00.170Z,24.95
2022-12-13T13:17:29.488Z,25.80
2022-12-13T13:20:19.661Z,28.88
2022-12-13T13:23:03.952Z,31.45
2022-12-13T13:25:54.346Z,28.65
2022-12-13T13:28:27.339Z,28.30
2022-12-13T13:31:09.921Z,31.83
2022-12-13T13:33:48.672Z,37.28
2022-12-13T13:36:45.987Z,30.38
2022-12-13T13:39:20.545Z,27.92
2022-12-13T13:41:57.833Z,27.75
2022-12-13T13:44:48.077Z,29.13
2022-12-13T13:47:20.026Z,30.52
2022-12-13T13:50:24.038Z,27.80
2022-12-13T13:53:27.366Z,31.17
2022-12-13T13:56:21.069Z,31.92
2022-12-13T13:59:14.452Z,31.40
2022-12-13T14:02:20.258Z,30.67
2022-12-13T14:05:04.991Z,30.30
2022-12-13T14:07:52.017Z,32.25
2022-12-13T14:10:36.324Z,33.20
2022-12-13T14:13:23.956Z,34.80
2022-12-13T14:16:31.495Z,32.85
2022-12-13T14:19:18.764Z,36.25
2022-12-13T14:22:01.491Z,34.10
2022-12-13T14:24:56.305Z,32.70
2022-12-13T14:30:28.141Z,34.00
2022-12-13T14:32:59.510Z,33.40
2022-12-13T14:35:31.346Z,36.13
2022-12-13T14:38:02.233Z,33.65
2022-12-13T14:40:35.901Z,34.47
2022-12-13T14:43:05.453Z,34.67
2022-12-13T14:45:41.589Z,33.63
2022-12-13T14:48:28.731Z,34.97
2022-12-13T14:50:58.968Z,33.40
2022-12-13T14:53:38.487Z,34.25
2022-12-13T14:56:27.793Z,36.97
2022-12-13T14:59:00.629Z,35.38
2022-12-13T15:01:38.370Z,34.47
2022-12-13T15:04:22.850Z,34.40
2022-12-13T15:09:28.965Z,32.70
2022-12-13T15:12:14.916Z,30.65
2022-12-13T15:15:09.423Z,34.47
2022-12-13T15:17:41.143Z,34.03
2022-12-13T15:20:33.783Z,34.22
2022-12-13T15:23:21.495Z,33.00
2022-12-13T15:26:29.002Z,35.20
2022-12-13T15:29:09.977Z,33.38
2022-12-13T15:31:41.382Z,30.50
2022-12-13T15:34:31.668Z,29.38
2022-12-13T15:37:29.593Z,30.17
2022-12-13T15:40:08.115Z,29.98
2022-12-13T15:42:45.733Z,30.35
2022-12-13T15:45:37.126Z,29.77
2022-12-13T15:48:07.094Z,30.23
2022-12-13T15:50:45.481Z,29.75
2022-12-13T15:53:28.921Z,30.30
2022-12-13T15:55:58.544Z,31.17
2022-12-13T15:58:32.912Z,29.52
2022-12-13T16:01:08.031Z,29.48
2022-12-13T16:03:45.617Z,26.48
2022-12-13T16:06:26.895Z,28.15
2022-12-13T16:09:00.216Z,27.25
2022-12-13T16:11:36.344Z,26.90
2022-12-13T16:14:33.206Z,26.33
2022-12-13T16:17:23.239Z,25.77
2022-12-13T16:19:53.483Z,26.05
2022-12-13T16:22:24.883Z,22.92
2022-12-13T16:24:54.309Z,26.13
2022-12-13T16:27:23.265Z,26.20
2022-12-13T16:29:52.309Z,24.75
2022-12-13T16:32:21.790Z,26.05
2022-12-13T16:34:50.831Z,25.52
2022-12-13T16:37:27.315Z,24.77
2022-12-13T16:39:57.037Z,24.73
2022-12-13T16:42:27.215Z,25.13
2022-12-13T16:45:39.554Z,23.30
2022-12-13T16:47:51.060Z,25.55
2022-12-13T16:50:22.180Z,24.88
2022-12-13T16:52:51.472Z,24.88
2022-12-13T16:55:20.446Z,23.33
2022-12-13T16:58:03.931Z,23.50
2022-12-13T17:00:33.029Z,23.15
2022-12-13T17:03:02.680Z,27.60
2022-12-13T17:05:32.299Z,23.05
2022-12-13T17:08:01.502Z,24.38
2022-12-13T17:10:30.864Z,22.98
2022-12-13T17:12:59.859Z,24.40
2022-12-13T17:15:29.315Z,23.92
2022-12-13T17:17:58.513Z,22.75
2022-12-13T17:20:28.252Z,22.63
2022-12-13T17:22:57.500Z,22.13
2022-12-13T17:25:26.545Z,24.83
2022-12-13T17:27:55.514Z,23.73
2022-12-13T17:30:25.259Z,24.15
2022-12-13T17:32:54.175Z,23.30
2022-12-13T17:35:23.142Z,23.98
2022-12-13T17:37:52.093Z,24.25
2022-12-13T17:40:21.606Z,23.20
2022-12-13T17:42:54.418Z,22.90
2022-12-13T17:45:24.186Z,23.27
2022-12-13T17:47:53.096Z,22.48
2022-12-13T17:50:22.423Z,22.25
2022-12-13T17:52:51.389Z,24.17
2022-12-13T17:55:20.312Z,23.55
2022-12-13T17:57:49.339Z,22.52
2022-12-13T18:00:18.606Z,22.45
2022-12-13T18:02:55.667Z,24.23
2022-12-13T18:05:28.708Z,23.77
2022-12-13T18:07:57.755Z,24.02
2022-12-13T18:10:29.980Z,21.77
2022-12-13T18:13:00.138Z,22.40
2022-12-13T18:15:29.449Z,25.02
2022-12-13T18:18:11.174Z,23.67
2022-12-13T18:20:41.112Z,23.50
2022-12-13T18:23:10.205Z,21.92
2022-12-13T18:25:39.810Z,24.15
2022-12-13T18:28:10.513Z,24.30
2022-12-13T18:30:40.043Z,22.90
2022-12-13T18:33:09.118Z,25.58
2022-12-13T18:35:38.086Z,23.88
2022-12-13T18:38:07.045Z,26.25
2022-12-13T18:40:36.043Z,27.20
2022-12-13T18:43:05.617Z,23.13
2022-12-13T18:45:35.666Z,23.05
2022-12-13T18:48:04.641Z,24.42
2022-12-13T18:50:34.770Z,23.70
2022-12-13T18:53:03.956Z,22.38
2022-12-13T18:55:32.918Z,23.77
2022-12-13T18:58:02.119Z,25.63
2022-12-13T19:00:31.125Z,25.35
2022-12-13T19:03:00.389Z,23.10
2022-12-13T19:05:29.820Z,24.23
2022-12-13T19:07:58.854Z,25.23
2022-12-13T19:10:27.868Z,24.63
2022-12-13T19:12:56.839Z,24.30
2022-12-13T19:15:26.027Z,23.77
2022-12-13T19:17:54.999Z,23.08
2022-12-13T19:20:24.276Z,23.85
2022-12-13T19:22:53.283Z,25.70
2022-12-13T19:25:22.198Z,24.13
2022-12-13T19:27:51.176Z,26.38
2022-12-13T19:30:24.056Z,23.42
2022-12-13T19:32:53.656Z,23.75
2022-12-13T19:35:22.637Z,23.90
2022-12-13T19:37:51.646Z,24.70
2022-12-13T19:40:20.859Z,24.42
2022-12-13T19:42:49.803Z,25.90
2022-12-13T19:45:18.893Z,23.50
2022-12-13T19:47:48.801Z,25.05
2022-12-13T19:50:18.146Z,25.55
2022-12-13T19:52:47.472Z,25.45
2022-12-13T19:55:16.505Z,26.65
2022-12-13T19:57:45.464Z,26.05
2022-12-13T20:00:15.357Z,25.15
2022-12-13T20:02:44.486Z,24.23
2022-12-13T20:05:13.660Z,27.13
2022-12-13T20:07:43.112Z,25.65
2022-12-13T20:10:13.262Z,25.80
2022-12-13T20:12:42.203Z,26.33
2022-12-13T20:15:11.476Z,27.13
2022-12-13T20:17:40.461Z,24.65
2022-12-13T20:20:10.089Z,26.15
2022-12-13T20:22:39.491Z,27.38
2022-12-13T20:25:08.908Z,27.70
2022-12-13T20:27:38.009Z,27.60
2022-12-13T20:30:07.719Z,26.27
2022-12-13T20:32:36.814Z,26.70
2022-12-13T20:35:06.098Z,25.73
2022-12-13T20:37:35.540Z,27.33
2022-12-13T20:40:04.735Z,27.80
2022-12-13T20:42:35.166Z,27.90
2022-12-13T20:45:05.135Z,26.30
2022-12-13T20:47:37.825Z,27.40
2022-12-13T20:50:07.631Z,26.98
2022-12-13T20:52:36.860Z,27.00
2022-12-13T20:55:07.395Z,28.65
2022-12-13T20:57:36.609Z,28.17
2022-12-13T21:00:09.459Z,27.13
2022-12-13T21:02:40.107Z,25.55
2022-12-13T21:05:09.472Z,29.33
2022-12-13T21:07:56.824Z,27.55
2022-12-13T21:10:26.174Z,26.48
2022-12-13T21:12:55.159Z,28.95
2022-12-13T21:15:24.120Z,28.02
2022-12-13T21:17:53.356Z,27.42
2022-12-13T21:20:22.451Z,29.00
2022-12-13T21:22:51.604Z,27.75
2022-12-13T21:25:20.554Z,26.73
2022-12-13T21:27:49.518Z,26.45
2022-12-13T21:30:18.564Z,26.48
2022-12-13T21:32:51.456Z,29.02
2022-12-13T21:35:21.925Z,27.88
2022-12-13T21:37:51.121Z,29.42
2022-12-13T21:40:20.134Z,27.92
2022-12-13T21:42:49.326Z,26.58
2022-12-13T21:45:18.322Z,27.50
2022-12-13T21:47:47.465Z,27.63
2022-12-13T21:50:16.396Z,27.92
2022-12-13T21:52:49.539Z,27.17
2022-12-13T21:58:28.943Z,26.27
2022-12-13T22:00:58.411Z,26.10
2022-12-13T22:03:27.476Z,40.83
2022-12-13T22:05:56.381Z,43.15
2022-12-13T22:08:26.171Z,41.05
2022-12-13T22:11:19.338Z,49.38
2022-12-13T22:13:50.624Z,30.63
2022-12-13T22:16:19.576Z,30.98
2022-12-13T22:18:48.566Z,30.45
2022-12-13T22:21:17.544Z,30.45
2022-12-13T22:23:46.496Z,31.05
2022-12-13T22:26:15.463Z,31.10
2022-12-13T22:28:44.505Z,31.13
2022-12-13T22:31:13.515Z,31.88
2022-12-13T22:33:42.441Z,31.00
2022-12-13T22:36:12.450Z,31.70
2022-12-13T22:38:41.416Z,28.70
2022-12-13T22:41:15.328Z,37.38
2022-12-13T22:43:45.084Z,43.30
2022-12-13T22:46:20.504Z,42.08
2022-12-13T22:48:49.966Z,43.90
2022-12-13T22:51:20.327Z,44.85
2022-12-13T22:53:50.016Z,41.97
2022-12-13T22:56:22.574Z,40.80
2022-12-13T22:58:57.154Z,38.88
2022-12-13T23:01:28.541Z,41.13
2022-12-13T23:03:57.818Z,39.42
2022-12-13T23:06:29.367Z,41.03
2022-12-13T23:09:03.005Z,42.17
2022-12-13T23:11:50.600Z,41.80
2022-12-13T23:14:26.058Z,37.85
2022-12-13T23:16:55.197Z,39.97
2022-12-13T23:22:13.286Z,43.63
2022-12-13T23:24:42.249Z,42.05
2022-12-13T23:27:11.272Z,40.67
2022-12-13T23:29:40.372Z,39.88
2022-12-13T23:32:09.399Z,39.97
2022-12-13T23:34:38.457Z,41.88
2022-12-13T23:37:07.466Z,40.10
2022-12-13T23:39:36.402Z,42.25
2022-12-13T23:42:05.398Z,42.70
2022-12-13T23:44:34.543Z,43.00
2022-12-13T23:47:03.627Z,53.25
2022-12-13T23:49:32.715Z,43.78
2022-12-13T23:52:01.645Z,39.92
2022-12-13T23:54:30.632Z,42.42
2022-12-13T23:56:59.758Z,54.03
2022-12-13T23:59:30.030Z,58.40
